createdAt,value
2018-07-26T00:01:33.800Z,97.20
2018-07-26T00:04:02.061Z,97.20
2018-07-26T00:06:30.338Z,97.20
2018-07-26T00:08:58.612Z,97.20
2018-07-26T00:11:26.888Z,97.20
2018-07-26T00:13:55.165Z,97.30
2018-07-26T00:16:23.450Z,97.20
2018-07-26T00:18:51.764Z,97.30
2018-07-26T00:21:20.175Z,97.50
2018-07-26T00:23:48.400Z,97.30
2018-07-26T00:26:16.657Z,97.30
2018-07-26T00:28:44.928Z,97.30
2018-07-26T00:31:13.181Z,97.30
2018-07-26T00:33:41.452Z,97.30
2018-07-26T00:36:09.684Z,97.30
2018-07-26T00:38:37.955Z,97.30
2018-07-26T00:41:06.419Z,97.40
2018-07-26T00:43:34.676Z,97.40
2018-07-26T00:46:02.905Z,97.40
2018-07-26T00:48:31.141Z,97.40
2018-07-26T00:50:59.443Z,97.40
2018-07-26T00:53:27.696Z,97.40
2018-07-26T00:55:55.994Z,97.40
2018-07-26T00:58:24.224Z,97.40
2018-07-26T01:00:52.454Z,97.50
2018-07-26T01:03:20.734Z,97.50
2018-07-26T01:05:48.993Z,97.50
2018-07-26T01:08:17.239Z,97.50
2018-07-26T01:10:45.505Z,97.40
2018-07-26T01:13:13.772Z,97.80
2018-07-26T01:15:42.047Z,97.40
2018-07-26T01:18:10.252Z,97.40
2018-07-26T01:20:38.533Z,97.50
2018-07-26T01:23:06.808Z,97.50
2018-07-26T01:25:35.084Z,97.50
2018-07-26T01:28:03.385Z,97.50
2018-07-26T01:30:31.640Z,97.60
2018-07-26T01:32:59.896Z,97.60
2018-07-26T01:35:28.140Z,97.60
2018-07-26T01:37:56.364Z,97.60
2018-07-26T01:40:24.644Z,97.70
2018-07-26T01:44:06.626Z,97.70
2018-07-26T01:46:34.876Z,97.70
2018-07-26T01:49:03.113Z,97.50
2018-07-26T01:53:59.325Z,97.80
2018-07-26T01:56:27.620Z,97.70
2018-07-26T01:58:55.913Z,97.80
2018-07-26T02:01:24.163Z,97.80
2018-07-26T02:03:52.452Z,97.70
2018-07-26T02:06:20.731Z,97.70
2018-07-26T02:08:48.981Z,97.70
2018-07-26T02:11:17.248Z,97.70
2018-07-26T02:13:45.481Z,97.70
2018-07-26T02:16:13.732Z,97.70
2018-07-26T02:18:42.025Z,97.70
2018-07-26T02:21:10.271Z,97.70
2018-07-26T02:23:38.562Z,97.70
2018-07-26T02:26:06.930Z,97.80
2018-07-26T02:28:35.163Z,97.80
2018-07-26T02:31:03.440Z,97.90
2018-07-26T02:33:31.711Z,97.80
2018-07-26T02:36:00.025Z,97.80
2018-07-26T02:38:28.254Z,97.80
2018-07-26T02:40:56.503Z,97.60
2018-07-26T02:43:24.777Z,97.70
2018-07-26T02:45:53.054Z,97.80
2018-07-26T02:48:21.324Z,97.80
2018-07-26T02:50:49.605Z,97.80
2018-07-26T02:53:17.861Z,97.90
2018-07-26T02:55:46.145Z,97.90
2018-07-26T02:58:14.404Z,98.00
2018-07-26T03:00:42.697Z,98.00
2018-07-26T03:03:10.939Z,98.00
2018-07-26T03:05:39.161Z,98.00
2018-07-26T03:08:07.425Z,98.00
2018-07-26T03:10:35.693Z,98.00
2018-07-26T03:13:03.970Z,98.00
2018-07-26T03:15:32.417Z,98.00
2018-07-26T03:18:00.653Z,98.00
2018-07-26T03:20:28.908Z,98.10
2018-07-26T03:22:57.165Z,98.10
2018-07-26T03:25:25.453Z,98.20
2018-07-26T03:27:54.060Z,98.20
2018-07-26T03:30:22.302Z,98.20
2018-07-26T03:32:50.525Z,98.30
2018-07-26T03:35:18.805Z,98.30
2018-07-26T03:37:47.040Z,98.30
2018-07-26T03:40:15.341Z,98.30
2018-07-26T03:42:43.556Z,98.30
2018-07-26T03:45:11.893Z,98.30
2018-07-26T03:47:40.169Z,98.40
2018-07-26T03:50:08.444Z,98.40
2018-07-26T03:52:36.795Z,98.40
2018-07-26T03:55:05.127Z,98.40
2018-07-26T03:57:33.376Z,98.40
2018-07-26T04:00:01.656Z,98.40
2018-07-26T04:04:58.120Z,98.50
2018-07-26T04:07:26.417Z,98.70
2018-07-26T04:09:54.681Z,98.40
2018-07-26T04:12:22.922Z,98.40
2018-07-26T04:14:51.213Z,98.40
2018-07-26T04:17:19.495Z,98.50
2018-07-26T04:19:47.741Z,98.50
2018-07-26T04:22:16.013Z,98.50
2018-07-26T04:24:44.285Z,98.60
2018-07-26T04:27:12.561Z,98.50
2018-07-26T04:29:40.793Z,98.50
2018-07-26T04:32:09.146Z,98.50
2018-07-26T04:34:37.360Z,98.60
2018-07-26T04:37:05.719Z,98.60
2018-07-26T04:39:33.976Z,98.60
2018-07-26T04:42:02.294Z,98.70
2018-07-26T04:44:30.585Z,98.70
2018-07-26T04:46:58.808Z,98.70
2018-07-26T04:49:27.085Z,98.80
2018-07-26T04:51:55.386Z,98.80
2018-07-26T04:54:23.658Z,98.80
2018-07-26T04:56:51.937Z,98.90
2018-07-26T04:59:20.380Z,98.90
2018-07-26T05:01:48.702Z,99.00
2018-07-26T05:04:16.948Z,99.00
2018-07-26T05:06:45.233Z,99.10
2018-07-26T05:09:13.528Z,99.10
2018-07-26T05:11:41.961Z,99.20
2018-07-26T05:14:10.250Z,99.20
2018-07-26T05:16:38.528Z,99.20
2018-07-26T05:19:06.817Z,99.20
2018-07-26T05:21:35.055Z,99.30
2018-07-26T05:24:03.333Z,99.30
2018-07-26T05:26:31.685Z,99.30
2018-07-26T05:29:00.002Z,99.40
2018-07-26T05:31:28.246Z,99.40
2018-07-26T05:33:56.680Z,99.50
2018-07-26T05:36:25.570Z,99.50
2018-07-26T05:38:53.848Z,99.60
2018-07-26T05:41:22.100Z,99.60
2018-07-26T05:43:50.372Z,99.60
2018-07-26T05:46:18.609Z,99.70
2018-07-26T05:48:46.899Z,99.70
2018-07-26T05:51:15.201Z,99.80
2018-07-26T05:53:43.406Z,99.80
2018-07-26T05:56:11.664Z,99.80
2018-07-26T05:58:39.925Z,99.90
2018-07-26T06:01:08.162Z,99.90
2018-07-26T06:03:36.434Z,99.90
2018-07-26T06:06:05.019Z,99.90
2018-07-26T06:08:33.296Z,99.90
2018-07-26T06:11:01.573Z,99.90
2018-07-26T06:13:29.916Z,99.90
2018-07-26T06:15:58.408Z,99.90
2018-07-26T06:18:26.726Z,99.90
2018-07-26T06:20:54.981Z,99.90
2018-07-26T06:23:23.233Z,99.90
2018-07-26T06:25:51.526Z,99.90
2018-07-26T06:28:19.803Z,99.90
2018-07-26T06:30:48.037Z,99.90
2018-07-26T06:33:16.315Z,99.90
2018-07-26T06:35:44.537Z,99.90
2018-07-26T06:38:12.814Z,99.90
2018-07-26T06:40:41.057Z,99.90
2018-07-26T06:43:09.336Z,99.90
2018-07-26T06:45:37.611Z,99.90
2018-07-26T06:48:06.476Z,99.80
2018-07-26T06:50:34.733Z,99.60
2018-07-26T06:53:03.168Z,99.60
2018-07-26T06:55:31.528Z,99.40
2018-07-26T06:58:00.113Z,98.90
2018-07-26T07:00:28.383Z,98.40
2018-07-26T07:02:56.697Z,97.90
2018-07-26T07:05:24.948Z,97.90
2018-07-26T07:07:53.174Z,97.30
2018-07-26T07:10:21.464Z,96.80
2018-07-26T07:12:49.712Z,96.50
2018-07-26T07:15:18.966Z,95.40
2018-07-26T07:17:47.305Z,94.50
2018-07-26T07:20:15.622Z,93.50
2018-07-26T07:22:43.884Z,93.20
2018-07-26T07:25:12.176Z,92.90
2018-07-26T07:27:40.439Z,92.50
2018-07-26T07:30:10.702Z,92.10
2018-07-26T07:32:39.238Z,91.30
2018-07-26T07:35:07.501Z,91.30
2018-07-26T07:37:35.765Z,91.00
2018-07-26T07:40:04.521Z,91.20
2018-07-26T07:42:32.822Z,91.30
2018-07-26T07:45:01.138Z,91.10
2018-07-26T07:47:29.433Z,90.10
2018-07-26T07:49:57.648Z,88.50
2018-07-26T07:52:25.919Z,88.10
2018-07-26T07:54:54.177Z,87.60
2018-07-26T07:57:22.481Z,87.20
2018-07-26T07:59:50.744Z,83.80
2018-07-26T08:02:18.989Z,82.20
2018-07-26T08:04:47.317Z,82.20
2018-07-26T08:07:15.576Z,80.40
2018-07-26T08:09:43.837Z,78.70
2018-07-26T08:12:12.121Z,76.30
2018-07-26T08:14:40.410Z,76.40
2018-07-26T08:17:08.739Z,75.90
2018-07-26T08:19:36.988Z,73.70
2018-07-26T08:27:01.302Z,72.70
2018-07-26T08:29:29.592Z,69.40
2018-07-26T08:31:57.801Z,66.80
2018-07-26T08:34:26.180Z,65.60
2018-07-26T08:36:54.438Z,65.30
2018-07-26T08:39:22.761Z,64.30
2018-07-26T08:41:51.220Z,63.50
2018-07-26T08:44:19.508Z,63.70
2018-07-26T08:46:47.757Z,63.60
2018-07-26T08:49:16.075Z,61.80
2018-07-26T08:51:44.366Z,61.30
2018-07-26T08:54:12.816Z,60.60
2018-07-26T08:56:41.012Z,61.90
2018-07-26T08:59:09.253Z,60.90
2018-07-26T09:01:37.661Z,57.90
2018-07-26T09:04:06.232Z,55.10
2018-07-26T09:06:34.510Z,55.00
2018-07-26T09:09:02.854Z,53.70
2018-07-26T09:11:31.372Z,51.90
2018-07-26T09:13:59.590Z,51.90
2018-07-26T09:16:27.869Z,49.10
2018-07-26T09:18:56.125Z,48.00
2018-07-26T09:21:24.443Z,47.50
2018-07-26T09:23:52.700Z,48.00
2018-07-26T09:26:21.034Z,47.40
2018-07-26T09:28:49.207Z,46.10
2018-07-26T09:31:17.529Z,44.90
2018-07-26T09:33:45.784Z,43.80
2018-07-26T09:36:14.028Z,43.10
2018-07-26T09:38:42.295Z,42.20
2018-07-26T09:41:13.207Z,40.80
2018-07-26T09:43:41.626Z,40.30
2018-07-26T09:46:09.916Z,40.70
2018-07-26T09:51:06.235Z,39.30
2018-07-26T09:53:34.509Z,38.00
2018-07-26T09:56:02.749Z,37.00
2018-07-26T09:58:31.025Z,36.90
2018-07-26T10:01:04.738Z,36.60
2018-07-26T10:03:33.061Z,37.00
2018-07-26T10:06:01.321Z,36.60
2018-07-26T10:08:29.761Z,37.20
2018-07-26T10:10:57.989Z,38.30
2018-07-26T10:13:26.287Z,37.40
2018-07-26T10:15:54.566Z,37.50
2018-07-26T10:18:22.901Z,37.50
2018-07-26T10:20:51.150Z,36.90
2018-07-26T10:23:19.578Z,36.50
2018-07-26T10:25:47.860Z,35.60
2018-07-26T10:28:16.133Z,35.60
2018-07-26T10:30:44.410Z,35.70
2018-07-26T10:33:12.703Z,35.40
2018-07-26T10:35:40.962Z,35.30
2018-07-26T10:38:09.242Z,36.10
2018-07-26T10:40:37.542Z,35.90
2018-07-26T10:43:05.777Z,35.00
2018-07-26T10:45:34.077Z,35.00
2018-07-26T10:48:02.335Z,34.90
2018-07-26T10:50:30.557Z,34.60
2018-07-26T10:52:58.818Z,34.00
2018-07-26T10:55:27.068Z,34.40
2018-07-26T11:00:23.420Z,34.40
2018-07-26T11:02:51.616Z,33.40
2018-07-26T11:05:19.845Z,32.70
2018-07-26T11:07:48.113Z,33.20
2018-07-26T11:10:16.458Z,31.40
2018-07-26T11:12:44.740Z,31.10
2018-07-26T11:15:27.052Z,30.90
2018-07-26T11:17:55.321Z,29.10
2018-07-26T11:20:23.596Z,29.00
2018-07-26T11:22:51.848Z,28.50
2018-07-26T11:25:20.108Z,28.00
2018-07-26T11:27:48.421Z,28.20
2018-07-26T11:30:16.698Z,27.60
2018-07-26T11:32:45.142Z,27.00
2018-07-26T11:35:13.409Z,26.70
2018-07-26T11:37:41.908Z,26.50
2018-07-26T11:40:10.215Z,26.50
2018-07-26T11:42:38.464Z,26.50
2018-07-26T11:45:07.569Z,26.20
2018-07-26T11:47:36.041Z,25.70
2018-07-26T11:50:04.695Z,25.30
2018-07-26T11:52:32.996Z,25.00
2018-07-26T11:55:01.289Z,24.60
2018-07-26T11:57:29.589Z,24.80
2018-07-26T11:59:57.817Z,25.30
2018-07-26T12:02:26.167Z,25.20
2018-07-26T12:04:54.410Z,25.10
2018-07-26T12:07:22.675Z,24.70
2018-07-26T12:09:50.915Z,24.60
2018-07-26T12:12:19.161Z,24.40
2018-07-26T12:14:47.514Z,24.80
2018-07-26T12:17:15.782Z,24.90
2018-07-26T12:19:44.101Z,26.30
2018-07-26T12:22:12.427Z,26.80
2018-07-26T12:24:40.769Z,27.10
2018-07-26T12:27:09.098Z,27.00
2018-07-26T12:29:38.413Z,26.90
2018-07-26T12:32:06.683Z,26.40
2018-07-26T12:34:34.945Z,26.20
2018-07-26T12:37:03.222Z,26.50
2018-07-26T12:39:32.338Z,26.90
2018-07-26T12:42:01.723Z,27.20
2018-07-26T12:44:30.178Z,27.80
2018-07-26T12:49:26.693Z,28.60
2018-07-26T12:51:55.037Z,27.50
2018-07-26T12:54:23.270Z,26.90
2018-07-26T12:56:52.697Z,26.20
2018-07-26T12:59:20.977Z,25.50
2018-07-26T13:01:49.505Z,25.00
2018-07-26T13:04:17.704Z,24.60
2018-07-26T13:06:45.933Z,24.50
2018-07-26T13:09:14.181Z,24.90
2018-07-26T13:11:42.481Z,24.80
2018-07-26T13:14:10.757Z,24.90
2018-07-26T13:16:39.025Z,24.50
2018-07-26T13:19:07.320Z,24.60
2018-07-26T13:21:35.642Z,24.40
2018-07-26T13:24:03.881Z,24.10
2018-07-26T13:26:32.133Z,23.30
2018-07-26T13:29:00.512Z,23.00
2018-07-26T13:31:28.801Z,23.00
2018-07-26T13:33:57.073Z,22.90
2018-07-26T13:36:25.333Z,22.70
2018-07-26T13:38:53.809Z,22.30
2018-07-26T13:41:22.060Z,22.20
2018-07-26T13:43:50.364Z,22.30
2018-07-26T13:46:18.667Z,22.30
2018-07-26T13:48:46.896Z,22.30
2018-07-26T13:51:15.129Z,22.80
2018-07-26T13:53:43.389Z,22.80
2018-07-26T13:56:11.668Z,22.30
2018-07-26T13:58:40.000Z,21.90
2018-07-26T14:01:08.263Z,21.60
2018-07-26T14:03:36.506Z,21.50
2018-07-26T14:06:04.773Z,22.00
2018-07-26T14:08:33.025Z,22.70
2018-07-26T14:11:01.262Z,23.40
2018-07-26T14:13:29.541Z,23.90
2018-07-26T14:15:57.881Z,24.60
2018-07-26T14:18:26.209Z,25.10
2018-07-26T14:20:54.433Z,26.10
2018-07-26T14:23:28.001Z,26.30
2018-07-26T14:25:56.301Z,26.30
2018-07-26T14:28:24.538Z,26.70
2018-07-26T14:30:52.918Z,26.60
2018-07-26T14:33:21.144Z,26.90
2018-07-26T14:35:49.394Z,27.70
2018-07-26T14:38:17.666Z,28.10
2018-07-26T14:40:45.909Z,28.10
2018-07-26T14:43:14.194Z,28.00
2018-07-26T14:45:42.445Z,28.00
2018-07-26T14:48:10.684Z,28.60
2018-07-26T14:50:38.944Z,28.60
2018-07-26T14:53:07.522Z,28.60
2018-07-26T14:55:35.900Z,28.10
2018-07-26T14:58:04.166Z,28.40
2018-07-26T15:00:32.445Z,28.90
2018-07-26T15:03:00.718Z,29.50
2018-07-26T15:05:29.313Z,30.60
2018-07-26T15:07:57.777Z,30.70
2018-07-26T15:10:25.949Z,31.30
2018-07-26T15:12:54.225Z,32.20
2018-07-26T15:15:23.306Z,32.60
2018-07-26T15:17:51.572Z,33.60
2018-07-26T15:20:19.871Z,34.20
2018-07-26T15:22:48.352Z,34.20
2018-07-26T15:25:21.669Z,35.30
2018-07-26T15:27:49.994Z,36.00
2018-07-26T15:30:18.336Z,36.10
2018-07-26T15:32:46.665Z,36.00
2018-07-26T15:35:14.884Z,36.30
2018-07-26T15:37:43.163Z,36.80
2018-07-26T15:40:11.453Z,37.30
2018-07-26T15:45:07.964Z,37.90
2018-07-26T15:47:36.244Z,37.90
2018-07-26T15:52:33.032Z,38.00
2018-07-26T15:55:01.490Z,38.30
2018-07-26T15:57:29.737Z,38.70
2018-07-26T15:59:58.292Z,39.60
2018-07-26T16:02:27.057Z,39.10
2018-07-26T16:04:56.377Z,39.30
2018-07-26T16:07:24.701Z,39.50
2018-07-26T16:09:52.993Z,39.70
2018-07-26T16:12:21.301Z,39.80
2018-07-26T16:14:49.548Z,39.80
2018-07-26T16:17:17.849Z,39.90
2018-07-26T16:19:46.101Z,40.00
2018-07-26T16:24:42.401Z,40.40
2018-07-26T16:27:10.639Z,40.70
2018-07-26T16:29:38.921Z,40.90
2018-07-26T16:32:07.204Z,40.90
2018-07-26T16:34:35.473Z,41.80
2018-07-26T16:37:03.737Z,42.30
2018-07-26T16:39:32.030Z,43.00
2018-07-26T16:42:00.281Z,42.50
2018-07-26T16:44:28.557Z,42.10
2018-07-26T16:46:57.285Z,42.00
2018-07-26T16:49:25.560Z,42.40
2018-07-26T16:51:53.821Z,42.30
2018-07-26T16:54:22.067Z,42.60
2018-07-26T16:56:51.364Z,42.70
2018-07-26T16:59:19.647Z,42.70
2018-07-26T17:01:48.275Z,42.80
2018-07-26T17:04:16.538Z,43.10
2018-07-26T17:06:44.764Z,43.40
2018-07-26T17:09:12.989Z,43.80
2018-07-26T17:11:41.268Z,43.80
2018-07-26T17:14:09.517Z,44.30
2018-07-26T17:16:37.782Z,44.10
2018-07-26T17:19:06.052Z,44.10
2018-07-26T17:21:34.297Z,44.30
2018-07-26T17:24:02.544Z,44.60
2018-07-26T17:26:30.866Z,44.60
2018-07-26T17:28:59.269Z,44.40
2018-07-26T17:31:27.521Z,44.30
2018-07-26T17:33:55.762Z,44.50
2018-07-26T17:36:24.045Z,44.90
2018-07-26T17:38:52.287Z,45.10
2018-07-26T17:41:20.545Z,45.40
2018-07-26T17:43:48.817Z,45.60
2018-07-26T17:46:17.202Z,45.60
2018-07-26T17:48:45.445Z,45.90
2018-07-26T17:51:13.893Z,46.80
2018-07-26T17:53:42.157Z,46.90
2018-07-26T17:56:10.434Z,46.40
2018-07-26T18:01:06.761Z,46.60
2018-07-26T18:03:34.990Z,46.90
2018-07-26T18:06:03.237Z,46.90
2018-07-26T18:08:31.473Z,47.20
2018-07-26T18:10:59.729Z,47.60
2018-07-26T18:13:27.994Z,47.40
2018-07-26T18:15:56.268Z,47.50
2018-07-26T18:18:24.524Z,47.90
2018-07-26T18:20:52.767Z,48.20
2018-07-26T18:23:21.052Z,48.30
2018-07-26T18:25:49.353Z,49.10
2018-07-26T18:28:17.610Z,49.30
2018-07-26T18:30:45.835Z,49.00
2018-07-26T18:33:14.075Z,49.50
2018-07-26T18:35:42.561Z,49.50
2018-07-26T18:38:10.928Z,49.40
2018-07-26T18:40:39.131Z,50.10
2018-07-26T18:43:07.666Z,50.20
2018-07-26T18:45:35.912Z,50.60
2018-07-26T18:48:04.358Z,50.90
2018-07-26T18:50:33.428Z,50.60
2018-07-26T18:53:01.697Z,52.60
2018-07-26T18:55:30.019Z,53.40
2018-07-26T18:57:58.244Z,54.30
2018-07-26T19:00:26.457Z,54.00
2018-07-26T19:02:54.772Z,54.60
2018-07-26T19:05:23.032Z,55.90
2018-07-26T19:07:51.294Z,56.40
2018-07-26T19:10:19.530Z,55.80
2018-07-26T19:12:47.906Z,56.40
2018-07-26T19:15:16.540Z,56.40
2018-07-26T19:17:44.788Z,56.60
2018-07-26T19:20:13.061Z,56.30
2018-07-26T19:22:41.320Z,56.20
2018-07-26T19:25:10.537Z,57.10
2018-07-26T19:27:38.792Z,58.30
2018-07-26T19:30:09.225Z,57.40
2018-07-26T19:32:37.558Z,57.70
2018-07-26T19:35:06.145Z,57.20
2018-07-26T19:37:34.791Z,57.50
2018-07-26T19:40:03.069Z,57.80
2018-07-26T19:42:31.322Z,58.40
2018-07-26T19:44:59.611Z,59.10
2018-07-26T19:47:27.910Z,58.40
2018-07-26T19:49:56.185Z,58.10
2018-07-26T19:52:24.460Z,58.30
2018-07-26T19:54:53.354Z,58.40
2018-07-26T19:57:21.573Z,58.90
2018-07-26T19:59:49.886Z,59.30
2018-07-26T20:02:18.389Z,59.40
2018-07-26T20:04:46.667Z,59.90
2018-07-26T20:07:14.928Z,59.80
2018-07-26T20:09:43.298Z,60.20
2018-07-26T20:12:11.526Z,59.70
2018-07-26T20:14:39.791Z,59.50
2018-07-26T20:17:08.049Z,60.00
2018-07-26T20:19:36.410Z,61.00
2018-07-26T20:22:04.955Z,61.30
2018-07-26T20:24:33.260Z,61.60
2018-07-26T20:27:02.350Z,60.90
2018-07-26T20:29:30.750Z,60.30
2018-07-26T20:31:59.223Z,60.90
2018-07-26T20:34:28.557Z,60.60
2018-07-26T20:36:56.821Z,60.80
2018-07-26T20:39:25.350Z,61.00
2018-07-26T20:41:53.628Z,61.50
2018-07-26T20:44:21.961Z,62.20
2018-07-26T20:46:50.269Z,62.40
2018-07-26T20:49:18.529Z,62.40
2018-07-26T20:51:46.789Z,62.50
2018-07-26T20:54:15.235Z,63.40
2018-07-26T20:56:43.659Z,63.40
2018-07-26T20:59:11.940Z,63.50
2018-07-26T21:01:40.182Z,64.10
2018-07-26T21:04:08.478Z,64.60
2018-07-26T21:06:36.750Z,65.00
2018-07-26T21:09:08.455Z,65.00
2018-07-26T21:11:36.853Z,65.20
2018-07-26T21:14:05.186Z,65.30
2018-07-26T21:16:33.682Z,65.70
2018-07-26T21:19:02.289Z,65.90
2018-07-26T21:21:30.697Z,66.20
2018-07-26T21:23:59.099Z,66.30
2018-07-26T21:26:27.461Z,66.50
2018-07-26T21:28:55.778Z,66.50
2018-07-26T21:31:24.025Z,66.60
2018-07-26T21:33:52.320Z,66.80
2018-07-26T21:36:21.081Z,66.90
2018-07-26T21:38:49.353Z,67.30
2018-07-26T21:41:18.136Z,67.40
2018-07-26T21:43:46.619Z,67.60
2018-07-26T21:46:15.494Z,67.90
2018-07-26T21:48:43.717Z,68.30
2018-07-26T21:51:12.085Z,68.70
2018-07-26T21:53:40.388Z,69.20
2018-07-26T21:56:08.817Z,69.60
2018-07-26T21:58:37.187Z,69.70
2018-07-26T22:01:05.585Z,70.20
2018-07-26T22:03:33.892Z,70.50
2018-07-26T22:06:02.246Z,70.80
2018-07-26T22:08:30.576Z,71.00
2018-07-26T22:10:58.821Z,71.20
2018-07-26T22:13:27.069Z,71.30
2018-07-26T22:15:55.338Z,71.70
2018-07-26T22:18:23.909Z,71.90
2018-07-26T22:20:52.337Z,72.00
2018-07-26T22:23:20.678Z,72.30
2018-07-26T22:25:49.950Z,72.70
2018-07-26T22:28:18.764Z,73.00
2018-07-26T22:30:47.577Z,72.90
2018-07-26T22:33:16.069Z,73.10
2018-07-26T22:35:44.411Z,72.80
2018-07-26T22:38:13.301Z,73.50
2018-07-26T22:40:41.598Z,73.60
2018-07-26T22:43:09.833Z,73.80
2018-07-26T22:45:38.400Z,73.80
2018-07-26T22:48:06.953Z,74.20
2018-07-26T22:53:03.269Z,74.70
2018-07-26T22:55:31.553Z,74.70
2018-07-26T22:57:59.984Z,74.80
2018-07-26T23:00:28.710Z,75.10
2018-07-26T23:02:57.041Z,75.50
2018-07-26T23:05:25.337Z,75.50
2018-07-26T23:07:53.777Z,75.60
2018-07-26T23:10:22.057Z,76.60
2018-07-26T23:12:50.344Z,76.00
2018-07-26T23:15:18.640Z,76.20
2018-07-26T23:17:46.976Z,76.40
2018-07-26T23:20:15.283Z,76.70
2018-07-26T23:22:43.510Z,76.80
2018-07-26T23:25:11.831Z,76.90
2018-07-26T23:27:40.095Z,77.10
2018-07-26T23:30:11.234Z,77.10
2018-07-26T23:32:39.524Z,77.20
2018-07-26T23:35:08.122Z,77.40
2018-07-26T23:37:36.557Z,77.80
2018-07-26T23:40:06.052Z,78.10
2018-07-26T23:42:34.294Z,78.20
2018-07-26T23:45:02.601Z,78.50
2018-07-26T23:47:30.874Z,78.70
2018-07-26T23:49:59.116Z,79.20
2018-07-26T23:52:27.441Z,79.50
2018-07-26T23:54:55.829Z,79.80
2018-07-26T23:57:24.137Z,80.10
2018-07-26T23:59:52.372Z,80.20
